Saint Clement, Missouri
Current Conditions -  °F | °C
As of 3:55 PM on Friday 28 Nov 2014 (Local Time) from KPPQ Reporting Station
Clear Clear  
Wind Chill:   Ceiling: Unl
Heat Index:   Visibility: NA
Dew Point:   Wind: 6mph
Humidity: 68%   Direction: 130°SE
Pressure: 29.9"   Gusts: NA
Location:  39.321°N, 91.1912°W
Report Text: KPPQ 282155Z AUTO 13005KT CLR 08/03 A2990 RMK AO2 T00810026 PWINO
Loading
Personal Weather Stations






























Interactive Weather Map New forecast layout! Learn more

10-Day Weather Forecast

Advertisements
Track Severe Weather on mobile